Time;durP1;ratioP1;P1;durP2;ratioP2;P2;SDS_P1;SDS_P2;PMS_P1;PMS_P2;Temp;Humidity;BMP_temperature;BMP_pressure;BME280_temperature;BME280_humidity;BME280_pressure;Samples;Min_cycle;Max_cycle;Signal;HPM_P1;HPM_P2
2023/05/23 00:01:15;;;;;;;69.30;31.52;;;;;;;14.07;100.00;101973.28;5240820;28;20024;-73
2023/05/23 00:03:48;;;;;;;65.85;31.55;;;;;;;14.02;100.00;101976.47;5237016;28;20029;-73
2023/05/23 00:06:20;;;;;;;69.60;30.35;;;;;;;14.00;100.00;101975.75;5229568;28;20029;-73
2023/05/23 00:08:51;;;;;;;71.28;31.08;;;;;;;14.03;100.00;101971.91;5238868;28;20059;-73
2023/05/23 00:11:25;;;;;;;71.45;30.67;;;;;;;14.04;100.00;101977.13;5234557;28;20055;-74
2023/05/23 00:13:59;;;;;;;64.78;29.73;;;;;;;14.01;100.00;101982.88;5234140;28;20116;-73
2023/05/23 00:16:31;;;;;;;69.20;30.02;;;;;;;14.01;100.00;101982.88;5239362;28;20016;-73
2023/05/23 00:19:03;;;;;;;72.00;29.38;;;;;;;14.04;100.00;101976.28;5222142;28;20027;-73
2023/05/23 00:21:34;;;;;;;68.78;30.30;;;;;;;14.07;100.00;101984.06;5239611;28;20078;-74
2023/05/23 00:24:04;;;;;;;61.42;29.38;;;;;;;14.08;100.00;101988.44;5238871;28;20025;-73
2023/05/23 00:26:36;;;;;;;70.32;31.50;;;;;;;14.06;100.00;101980.53;5226343;28;20544;-73
2023/05/23 00:29:06;;;;;;;70.85;30.50;;;;;;;14.11;100.00;101991.69;5226502;28;20096;-74
2023/05/23 00:31:37;;;;;;;74.32;31.23;;;;;;;14.11;100.00;101989.00;5227013;28;20025;-74
2023/05/23 00:34:07;;;;;;;70.97;31.23;;;;;;;14.14;100.00;101988.66;5226638;28;20021;-72
2023/05/23 00:36:38;;;;;;;77.82;31.42;;;;;;;14.16;100.00;101996.59;5226238;28;20031;-73
2023/05/23 00:39:08;;;;;;;68.55;30.38;;;;;;;14.17;100.00;101992.88;5226267;28;20021;-73
2023/05/23 00:41:39;;;;;;;67.45;31.83;;;;;;;14.17;100.00;101996.44;5227763;28;20025;-73
2023/05/23 00:44:10;;;;;;;64.57;29.65;;;;;;;14.18;100.00;102000.81;5238288;28;20032;-73
2023/05/23 00:46:44;;;;;;;70.78;32.70;;;;;;;14.20;100.00;101998.78;5228510;28;20028;-73
2023/05/23 00:49:18;;;;;;;67.85;31.77;;;;;;;14.21;100.00;102000.50;5244730;28;20048;-73
2023/05/23 00:51:50;;;;;;;64.55;30.98;;;;;;;14.21;100.00;102000.50;5232494;28;20032;-73
2023/05/23 00:54:26;;;;;;;78.47;31.23;;;;;;;14.26;100.00;102000.00;5228365;28;20431;-74
2023/05/23 00:56:57;;;;;;;;;;;;;;;14.22;100.00;102004.88;5229538;28;20173;-73
2023/05/23 00:59:28;;;;;;;77.07;30.98;;;;;;;14.22;100.00;102015.69;5229969;28;20003;-73
2023/05/23 01:01:59;;;;;;;64.07;28.48;;;;;;;14.23;100.00;102005.72;5238208;28;20027;-73
2023/05/23 01:04:32;;;;;;;62.40;27.38;;;;;;;14.22;100.00;102012.97;5242558;28;20393;-73
2023/05/23 01:07:03;;;;;;;60.75;25.83;;;;;;;14.23;100.00;102008.44;5247000;28;20052;-73
2023/05/23 01:09:34;;;;;;;70.25;25.70;;;;;;;14.21;100.00;102011.28;5233669;28;20506;-73
2023/05/23 01:12:37;;;;;;;55.05;23.85;;;;;;;14.25;100.00;102001.84;5235513;28;20363;-73
2023/05/23 01:15:12;;;;;;;54.83;23.58;;;;;;;14.24;100.00;102008.25;5236587;28;20025;-73
2023/05/23 01:17:49;;;;;;;44.30;20.83;;;;;;;14.27;100.00;102009.78;5246196;28;20021;-73
2023/05/23 01:20:27;;;;;;;46.65;21.40;;;;;;;14.29;100.00;102007.78;5235909;28;20025;-73
2023/05/23 01:26:31;;;;;;;45.22;21.77;;;;;;;14.29;100.00;102002.38;5227378;28;20032;-74
2023/05/23 01:29:30;;;;;;;57.00;22.40;;;;;;;14.24;100.00;102010.94;5225616;28;20040;-73
2023/05/23 01:32:06;;;;;;;47.88;21.75;;;;;;;14.31;100.00;102018.41;5239614;28;20012;-73
2023/05/23 01:34:37;;;;;;;;;;;;;;;14.31;100.00;102011.16;5236099;28;20017;-73
2023/05/23 01:37:09;;;;;;;45.47;22.60;;;;;;;14.32;100.00;102017.41;5238525;28;20362;-74
2023/05/23 01:39:40;;;;;;;50.53;22.38;;;;;;;14.33;100.00;102029.91;5235725;28;20655;-73
2023/05/23 01:42:11;;;;;;;42.65;22.95;;;;;;;14.32;100.00;102017.41;5239447;28;20032;-73
2023/05/23 01:44:42;;;;;;;52.40;24.45;;;;;;;14.31;100.00;102016.56;5239320;28;20039;-73
2023/05/23 01:47:14;;;;;;;47.28;22.65;;;;;;;14.33;100.00;102019.09;5232230;28;20107;-73
2023/05/23 01:49:46;;;;;;;46.67;22.58;;;;;;;14.29;100.00;102018.56;5214492;28;20029;-74
2023/05/23 01:52:17;;;;;;;49.70;23.05;;;;;;;14.28;100.00;102011.47;5219194;28;20429;-73
2023/05/23 01:54:49;;;;;;;44.75;22.80;;;;;;;14.24;100.00;102023.59;5239200;28;20032;-73
2023/05/23 01:57:28;;;;;;;41.88;22.15;;;;;;;14.22;100.00;102023.78;5236542;28;20024;-74
2023/05/23 01:59:59;;;;;;;43.00;23.55;;;;;;;14.20;100.00;102023.06;5232583;28;20024;-73
2023/05/23 02:02:43;;;;;;;41.60;22.20;;;;;;;14.20;100.00;102030.31;5232691;28;20064;-73
2023/05/23 02:05:17;;;;;;;41.60;22.10;;;;;;;14.18;100.00;102033.19;5236921;28;20025;-73
2023/05/23 02:07:59;;;;;;;41.70;23.17;;;;;;;14.21;100.00;102037.44;5238715;28;20019;-73
2023/05/23 02:10:30;;;;;;;42.75;23.55;;;;;;;14.24;100.00;102039.81;5237055;28;20054;-74
2023/05/23 02:13:00;;;;;;;37.92;21.85;;;;;;;14.23;100.00;102030.00;5232442;28;20025;-74
2023/05/23 02:15:31;;;;;;;40.60;21.20;;;;;;;14.20;100.00;102028.47;5232285;28;20025;-73
2023/05/23 02:18:03;;;;;;;37.30;22.33;;;;;;;14.20;100.00;102033.03;5231975;28;20024;-73
2023/05/23 02:20:34;;;;;;;42.63;20.75;;;;;;;14.13;100.00;102024.75;5234893;28;20037;-73
2023/05/23 02:23:04;;;;;;;40.42;21.33;;;;;;;14.10;100.00;102030.44;5241004;28;20023;-74
2023/05/23 02:25:35;;;;;;;37.72;20.55;;;;;;;14.09;100.00;102034.16;5228328;28;20035;-73
2023/05/23 02:28:05;;;;;;;40.95;19.23;;;;;;;14.06;100.00;102033.66;5207212;28;20447;-73
2023/05/23 02:30:36;;;;;;;38.80;21.05;;;;;;;14.05;100.00;102040.03;5224690;28;20402;-73
2023/05/23 02:33:07;;;;;;;44.08;19.92;;;;;;;14.06;100.00;102041.75;5236936;28;20028;-73
2023/05/23 02:35:37;;;;;;;40.17;20.05;;;;;;;14.02;100.00;102038.50;5225068;28;20025;-73
2023/05/23 02:38:08;;;;;;;42.88;20.52;;;;;;;13.99;100.00;102046.91;5223332;28;20029;-73
2023/05/23 02:40:38;;;;;;;46.35;21.83;;;;;;;13.97;100.00;102041.69;5233756;28;20082;-73
2023/05/23 02:43:09;;;;;;;51.45;22.48;;;;;;;13.96;100.00;102044.56;5232891;28;20033;-73
2023/05/23 02:45:39;;;;;;;48.13;22.13;;;;;;;13.97;100.00;102046.25;5224938;28;20020;-74
2023/05/23 02:48:10;;;;;;;45.05;21.60;;;;;;;13.96;100.00;102047.25;5237985;28;20016;-73
2023/05/23 02:50:41;;;;;;;45.03;21.95;;;;;;;13.95;100.00;102048.22;5235228;28;20108;-73
2023/05/23 02:53:11;;;;;;;48.92;22.73;;;;;;;13.93;100.00;102052.94;5235544;28;20112;-73
2023/05/23 02:55:42;;;;;;;43.72;23.10;;;;;;;13.94;100.00;102035.75;5238154;28;20021;-73
2023/05/23 02:58:12;;;;;;;47.60;24.27;;;;;;;13.89;100.00;102052.41;5239750;28;20070;-73
2023/05/23 03:00:43;;;;;;;54.83;24.45;;;;;;;13.87;100.00;102054.44;5231464;28;20433;-73
2023/05/23 03:03:13;;;;;;;48.97;22.98;;;;;;;13.86;100.00;102057.31;5237165;28;20547;-74
2023/05/23 03:05:44;;;;;;;48.95;23.30;;;;;;;13.79;100.00;102057.06;5219333;28;20040;-73
2023/05/23 03:08:14;;;;;;;52.75;21.63;;;;;;;13.77;100.00;102064.47;5244334;28;20028;-74
2023/05/23 03:10:45;;;;;;;48.30;21.83;;;;;;;13.71;100.00;102068.66;5242633;28;20024;-73
2023/05/23 03:13:16;;;;;;;57.75;23.08;;;;;;;13.67;100.00;102055.66;5223495;28;20040;-73
2023/05/23 03:15:46;;;;;;;45.97;21.80;;;;;;;13.63;100.00;102063.19;5205469;28;20021;-73
2023/05/23 03:18:17;;;;;;;51.28;22.42;;;;;;;13.58;100.00;102073.59;5223630;28;20032;-73
2023/05/23 03:20:47;;;;;;;54.90;24.20;;;;;;;13.57;100.00;102066.53;5240894;28;20262;-74
2023/05/23 03:23:18;;;;;;;48.88;21.80;;;;;;;13.55;100.00;102073.06;5255904;28;20668;-73
2023/05/23 03:25:48;;;;;;;50.10;20.30;;;;;;;13.52;100.00;102071.53;5225902;28;20025;-73
2023/05/23 03:28:19;;;;;;;44.47;20.80;;;;;;;13.52;100.00;102073.38;5223354;28;20025;-73
2023/05/23 03:30:50;;;;;;;42.05;19.33;;;;;;;13.52;100.00;102082.31;5223307;28;20035;-74
2023/05/23 03:33:20;;;;;;;44.45;19.80;;;;;;;13.52;100.00;102078.78;5223415;28;20085;-73
2023/05/23 03:35:51;;;;;;;44.40;19.15;;;;;;;13.48;100.00;102079.06;5223107;28;20033;-74
2023/05/23 03:38:22;;;;;;;45.47;18.50;;;;;;;13.50;100.00;102087.00;5222657;28;20057;-73
2023/05/23 03:40:52;;;;;;;39.13;17.17;;;;;;;13.48;100.00;102079.06;5230456;28;20048;-73
2023/05/23 03:43:23;;;;;;;43.80;17.85;;;;;;;13.46;100.00;102089.19;5236807;28;20486;-74
2023/05/23 03:45:53;;;;;;;34.22;15.73;;;;;;;13.43;100.00;102092.19;5233015;28;20034;-73
2023/05/23 03:48:24;;;;;;;36.00;13.85;;;;;;;13.43;100.00;102086.78;5239537;28;20025;-74
2023/05/23 03:50:55;;;;;;;28.70;13.60;;;;;;;13.46;100.00;102085.66;5234303;28;20027;-73
2023/05/23 03:53:25;;;;;;;32.67;14.18;;;;;;;13.46;100.00;102086.50;5230229;28;20028;-73
2023/05/23 03:55:56;;;;;;;34.55;13.38;;;;;;;13.46;100.00;102091.03;5230922;28;20029;-73
2023/05/23 03:58:26;;;;;;;33.13;13.57;;;;;;;13.42;100.00;102082.41;5236768;28;20018;-74
2023/05/23 04:00:57;;;;;;;25.48;12.55;;;;;;;13.47;100.00;102080.09;5236530;28;20035;-73
2023/05/23 04:03:31;;;;;;;26.23;12.35;;;;;;;13.49;100.00;102079.91;5230373;28;20028;-73
2023/05/23 04:06:01;;;;;;;25.40;12.23;;;;;;;13.49;100.00;102090.72;5229964;28;20053;-73
2023/05/23 04:08:32;;;;;;;28.73;13.25;;;;;;;13.48;100.00;102084.47;5216809;28;20056;-73
2023/05/23 04:11:03;;;;;;;28.83;12.13;;;;;;;13.53;100.00;102089.41;5236840;28;20029;-73
2023/05/23 04:13:34;;;;;;;23.13;11.50;;;;;;;13.57;100.00;102082.69;5227446;28;20035;-73
2023/05/23 04:16:05;;;;;;;27.45;12.60;;;;;;;13.55;100.00;102089.22;5237049;28;20078;-73
2023/05/23 04:18:37;;;;;;;19.63;10.70;;;;;;;13.59;100.00;102093.31;5236456;28;20052;-74
2023/05/23 04:21:08;;;;;;;23.35;10.68;;;;;;;13.63;100.00;102089.31;5242529;28;20023;-74
2023/05/23 04:23:38;;;;;;;25.48;11.10;;;;;;;13.64;100.00;102096.41;5237296;28;20024;-74
2023/05/23 04:26:10;;;;;;;27.40;11.50;;;;;;;13.65;100.00;102098.94;5235032;28;20174;-74
2023/05/23 04:28:45;;;;;;;25.42;10.57;;;;;;;13.69;100.00;102091.38;5230732;28;20029;-73
2023/05/23 04:31:15;;;;;;;24.55;10.75;;;;;;;13.69;100.00;102094.06;5234564;28;20031;-73
2023/05/23 04:33:46;;;;;;;26.98;10.77;;;;;;;13.70;100.00;102098.47;5225147;28;20461;-73
2023/05/23 04:36:17;;;;;;;26.30;11.52;;;;;;;13.74;100.00;102098.00;5243472;28;20057;-73
2023/05/23 04:38:47;;;;;;;25.63;10.70;;;;;;;13.72;100.00;102102.72;5240316;28;20491;-73
2023/05/23 04:41:22;;;;;;;30.20;11.60;;;;;;;13.71;100.00;102103.72;5237457;28;20025;-73
2023/05/23 04:43:53;;;;;;;23.15;10.55;;;;;;;13.73;100.00;102103.56;5238704;28;20028;-74
2023/05/23 04:46:25;;;;;;;23.02;10.65;;;;;;;13.74;100.00;102111.47;5241191;28;20123;-74
2023/05/23 04:48:57;;;;;;;21.02;10.82;;;;;;;13.76;100.00;102113.19;5236370;28;20128;-74
2023/05/23 04:51:28;;;;;;;27.95;10.88;;;;;;;13.75;100.00;102109.63;5239726;28;20020;-74
2023/05/23 04:53:58;;;;;;;27.42;11.57;;;;;;;13.76;100.00;102115.91;5236524;28;20030;-74
2023/05/23 04:56:29;;;;;;;25.63;11.60;;;;;;;13.84;100.00;102113.25;5215147;28;20389;-74
2023/05/23 04:58:59;;;;;;;28.52;11.55;;;;;;;13.80;100.00;102111.84;5236017;28;20032;-74
2023/05/23 05:01:30;;;;;;;25.48;11.57;;;;;;;13.78;100.00;102112.03;5239168;28;20551;-74
2023/05/23 05:04:00;;;;;;;25.33;11.02;;;;;;;13.82;100.00;102110.72;5238564;28;20060;-74
2023/05/23 05:06:32;;;;;;;22.02;11.18;;;;;;;13.87;100.00;102111.09;5232659;28;20035;-74
2023/05/23 05:09:02;;;;;;;23.58;10.73;;;;;;;13.90;100.00;102115.31;5233312;28;20064;-74
2023/05/23 05:11:33;;;;;;;21.75;11.68;;;;;;;13.89;100.00;102116.31;5228735;28;20052;-73
2023/05/23 05:14:03;;;;;;;22.33;11.82;;;;;;;13.93;100.00;102113.16;5244953;28;20074;-74
2023/05/23 05:16:35;;;;;;;24.90;12.48;;;;;;;13.94;100.00;102117.53;5234429;28;20492;-73
2023/05/23 05:19:05;;;;;;;29.00;13.30;;;;;;;13.95;100.00;102115.69;5233383;28;20444;-74
2023/05/23 05:21:36;;;;;;;41.35;13.52;;;;;;;14.02;100.00;102118.63;5236984;28;20020;-74
2023/05/23 05:24:08;;;;;;;30.90;14.65;;;;;;;14.03;100.00;102126.53;5246109;28;20016;-74
2023/05/23 05:26:39;;;;;;;35.20;14.45;;;;;;;14.04;100.00;102128.22;5235984;28;20024;-74
2023/05/23 05:29:10;;;;;;;34.33;15.85;;;;;;;14.03;100.00;102125.69;5244588;28;20366;-74
2023/05/23 05:31:42;;;;;;;35.30;16.08;;;;;;;14.03;100.00;102125.69;5234403;28;20354;-74
2023/05/23 05:34:12;;;;;;;35.03;15.50;;;;;;;13.98;100.00;102124.31;5232660;28;20025;-73
2023/05/23 05:36:46;;;;;;;33.67;14.52;;;;;;;13.92;100.00;102135.75;5236119;28;20463;-74
2023/05/23 05:39:17;;;;;;;38.13;14.73;;;;;;;13.92;100.00;102138.44;5238334;28;20056;-74
2023/05/23 05:41:47;;;;;;;55.28;16.48;;;;;;;13.89;100.00;102146.00;5245065;28;20437;-74
2023/05/23 05:44:18;;;;;;;35.10;15.30;;;;;;;13.86;100.00;102143.63;5232004;28;20074;-74
2023/05/23 05:46:48;;;;;;;36.63;15.48;;;;;;;13.77;100.00;102141.84;5234170;28;20024;-74
2023/05/23 05:49:19;;;;;;;39.10;14.60;;;;;;;13.78;100.00;102146.25;5232617;28;20028;-74
2023/05/23 05:51:50;;;;;;;49.60;16.58;;;;;;;13.78;100.00;102148.94;5232601;28;20086;-73
2023/05/23 05:54:21;;;;;;;38.97;15.98;;;;;;;13.77;100.00;102153.50;5238034;28;20029;-73
2023/05/23 05:56:51;;;;;;;37.30;16.38;;;;;;;13.76;100.00;102148.25;5237818;28;20059;-74
2023/05/23 05:59:22;;;;;;;43.25;16.08;;;;;;;13.74;100.00;102154.63;5234574;28;20074;-74
2023/05/23 06:01:52;;;;;;;42.88;17.27;;;;;;;13.72;100.00;102153.94;5231812;28;20082;-73
2023/05/23 06:04:23;;;;;;;41.85;16.73;;;;;;;13.69;100.00;102156.94;5235164;28;20110;-74
2023/05/23 06:06:53;;;;;;;45.53;17.95;;;;;;;13.73;100.00;102161.03;5237641;28;20013;-74
2023/05/23 06:09:24;;;;;;;37.95;15.70;;;;;;;13.76;100.00;102165.28;5236577;28;20036;-74
2023/05/23 06:11:54;;;;;;;41.35;16.30;;;;;;;13.84;100.00;102169.88;5231729;28;20028;-73
2023/05/23 06:14:25;;;;;;;38.90;15.40;;;;;;;13.81;100.00;102165.66;5232600;28;20086;-74
2023/05/23 06:16:55;;;;;;;40.83;15.35;;;;;;;13.87;100.00;102175.81;5237382;28;20025;-74
2023/05/23 06:19:26;;;;;;;43.13;15.48;;;;;;;13.88;100.00;102174.81;5238682;28;20078;-74
2023/05/23 06:21:56;;;;;;;35.88;15.15;;;;;;;13.84;100.00;102176.13;5243559;28;20024;-74
2023/05/23 06:24:27;;;;;;;44.28;15.60;;;;;;;13.84;100.00;102172.59;5238546;28;20474;-74
2023/05/23 06:26:57;;;;;;;44.10;15.95;;;;;;;13.80;100.00;102177.44;5223584;28;20021;-74
2023/05/23 06:29:30;;;;;;;42.08;14.75;;;;;;;13.77;100.00;102174.22;5224440;28;20029;-74
2023/05/23 06:32:00;;;;;;;39.10;13.90;;;;;;;13.76;100.00;102175.22;5224562;28;20078;-74
2023/05/23 06:34:31;;;;;;;33.40;11.35;;;;;;;13.75;100.00;102179.75;5224640;28;20486;-74
2023/05/23 06:37:01;;;;;;;25.38;10.40;;;;;;;13.78;100.00;102182.16;5225096;28;20029;-73
2023/05/23 06:39:32;;;;;;;22.30;9.65;;;;;;;13.80;100.00;102177.44;5237866;28;20029;-73
2023/05/23 06:42:03;;;;;;;22.88;6.53;;;;;;;13.78;100.00;102182.16;5244532;28;20095;-73
2023/05/23 06:44:33;;;;;;;17.92;6.57;;;;;;;13.83;100.00;102185.22;5232586;28;20568;-74
2023/05/23 06:47:04;;;;;;;14.18;4.82;;;;;;;13.83;100.00;102189.78;5224516;28;20015;-73
2023/05/23 06:49:35;;;;;;;11.27;4.93;;;;;;;13.91;100.00;102187.16;5233491;28;20029;-74
2023/05/23 06:52:05;;;;;;;24.63;5.65;;;;;;;13.91;100.00;102192.56;5231029;28;20032;-73
2023/05/23 06:54:36;;;;;;;16.95;5.00;;;;;;;13.91;100.00;102200.66;5234304;28;20390;-73
2023/05/23 06:57:06;;;;;;;12.13;4.47;;;;;;;13.93;100.00;102202.19;5236989;28;20025;-74
2023/05/23 06:59:37;;;;;;;21.13;5.45;;;;;;;14.00;100.00;102194.28;5236083;28;20028;-73
2023/05/23 07:02:07;;;;;;;17.77;4.82;;;;;;;14.01;100.00;102201.41;5231205;28;20088;-73
2023/05/23 07:04:38;;;;;;;12.32;4.25;;;;;;;14.03;100.00;102203.94;5230119;28;20025;-73
2023/05/23 07:07:08;;;;;;;13.18;4.32;;;;;;;14.04;100.00;102211.88;5236560;28;20028;-73
2023/05/23 07:09:39;;;;;;;17.00;4.75;;;;;;;13.94;100.00;102203.03;5237235;28;20054;-73
2023/05/23 07:12:10;;;;;;;18.88;5.75;;;;;;;13.99;100.00;102211.50;5232335;28;20132;-73
2023/05/23 07:14:40;;;;;;;12.80;4.55;;;;;;;14.11;100.00;102207.56;5231390;28;20027;-73
2023/05/23 07:17:11;;;;;;;15.30;4.47;;;;;;;14.28;100.00;102213.09;5233742;28;20036;-74
2023/05/23 07:19:41;;;;;;;15.18;5.03;;;;;;;14.33;100.00;102217.00;5219156;28;20538;-73
2023/05/23 07:22:12;;;;;;;16.45;4.97;;;;;;;14.46;100.00;102216.59;5233956;28;20077;-73
2023/05/23 07:24:42;;;;;;;16.38;5.07;;;;;;;14.37;100.00;102220.25;5235355;28;20025;-73
2023/05/23 07:27:13;;;;;;;16.98;5.20;;;;;;;14.47;100.00;102215.59;5222982;28;20382;-74
2023/05/23 07:29:43;;;;;;;15.30;5.13;;;;;;;14.62;100.00;102232.09;5223042;28;20102;-73
2023/05/23 07:32:14;;;;;;;15.40;4.88;;;;;;;14.63;100.00;102226.53;5223212;28;20110;-74
2023/05/23 07:34:44;;;;;;;13.40;5.15;;;;;;;14.67;100.00;102225.19;5223636;28;20025;-74
2023/05/23 07:37:15;;;;;;;13.63;5.28;;;;;;;14.73;100.00;102229.97;5223170;28;20031;-74
2023/05/23 07:39:45;;;;;;;17.83;5.13;;;;;;;15.14;100.00;102235.56;5226614;28;20028;-73
2023/05/23 07:42:16;;;;;;;13.98;5.22;;;;;;;15.37;100.00;102229.56;5230084;28;20032;-74
2023/05/23 07:44:46;;;;;;;19.70;7.13;;;;;;;15.45;100.00;102241.25;5234677;28;20044;-74
2023/05/23 07:47:17;;;;;;;19.95;5.70;;;;;;;15.59;100.00;102233.50;5236356;28;20017;-74
2023/05/23 07:49:47;;;;;;;26.65;6.53;;;;;;;16.44;100.00;102229.53;5234987;28;20430;-74
2023/05/23 07:52:18;;;;;;;15.90;5.82;;;;;;;17.31;100.00;102232.34;5230863;28;20073;-75
2023/05/23 07:54:48;;;;;;;20.48;6.63;;;;;;;18.07;100.00;102225.25;5231286;28;20123;-74
2023/05/23 07:57:19;;;;;;;19.90;6.85;;;;;;;18.81;100.00;102230.84;5242483;28;20029;-74
2023/05/23 07:59:50;;;;;;;12.88;5.78;;;;;;;19.20;100.00;102232.44;5243698;28;20028;-75
2023/05/23 08:02:21;;;;;;;16.77;5.55;;;;;;;19.49;100.00;102235.09;5231359;28;20122;-75
2023/05/23 08:04:52;;;;;;;19.63;6.38;;;;;;;19.21;100.00;102232.25;5230794;28;20078;-75
2023/05/23 08:07:22;;;;;;;14.77;6.18;;;;;;;18.72;100.00;102237.41;5234746;28;20033;-75
2023/05/23 08:09:53;;;;;;;15.63;6.25;;;;;;;18.08;100.00;102244.09;5240597;28;20330;-74
2023/05/23 08:12:23;;;;;;;14.80;6.82;;;;;;;18.13;100.00;102248.97;5237936;28;20065;-74
2023/05/23 08:14:54;;;;;;;16.60;6.47;;;;;;;18.69;100.00;102251.38;5234615;28;20473;-74
2023/05/23 08:17:25;;;;;;;17.98;7.50;;;;;;;18.48;100.00;102252.91;5235416;28;20021;-75
2023/05/23 08:19:56;;;;;;;20.67;7.25;;;;;;;18.26;100.00;102251.91;5240126;28;20029;-75
2023/05/23 08:22:26;;;;;;;18.65;6.50;;;;;;;17.56;100.00;102252.03;5239316;28;20020;-74
2023/05/23 08:24:57;;;;;;;16.23;6.80;;;;;;;17.25;100.00;102258.28;5243548;28;20024;-74
2023/05/23 08:27:29;;;;;;;24.55;7.55;;;;;;;17.24;100.00;102247.63;5233599;28;20236;-74
2023/05/23 08:29:59;;;;;;;20.27;7.90;;;;;;;17.77;100.00;102251.44;5239526;28;20033;-75
2023/05/23 08:32:30;;;;;;;19.85;6.13;;;;;;;18.58;100.00;102258.09;5240529;28;20539;-74
2023/05/23 08:35:00;;;;;;;20.15;6.57;;;;;;;18.94;100.00;102255.53;5236109;28;20506;-75
2023/05/23 08:37:31;;;;;;;20.13;5.97;;;;;;;18.61;100.00;102265.84;5233448;28;20066;-75
2023/05/23 08:40:02;;;;;;;18.33;6.70;;;;;;;18.41;100.00;102254.66;5242665;28;20035;-74
2023/05/23 08:42:33;;;;;;;15.23;5.55;;;;;;;17.84;100.00;102263.28;5242996;28;20025;-74
2023/05/23 08:45:04;;;;;;;16.17;5.20;;;;;;;17.48;100.00;102269.22;5237967;28;20023;-74
2023/05/23 08:47:37;;;;;;;16.63;5.55;;;;;;;17.50;100.00;102264.44;5241591;28;20503;-74
2023/05/23 08:50:11;;;;;;;13.18;5.15;;;;;;;17.39;100.00;102262.16;5239689;28;20023;-74
2023/05/23 08:52:52;;;;;;;13.95;5.47;;;;;;;17.56;100.00;102273.75;5239592;28;20044;-74
2023/05/23 08:55:27;;;;;;;21.02;7.03;;;;;;;17.38;100.00;102270.47;5240068;28;20028;-74
2023/05/23 08:57:59;;;;;;;19.42;6.47;;;;;;;17.43;100.00;102274.34;5236475;28;20060;-74
2023/05/23 09:00:29;;;;;;;19.65;6.53;;;;;;;17.34;100.00;102270.81;5234169;28;20023;-74
2023/05/23 09:03:00;;;;;;;19.48;6.47;;;;;;;17.22;100.00;102274.94;5235157;28;20486;-75
2023/05/23 09:05:30;;;;;;;14.35;6.47;;;;;;;17.17;100.00;102281.88;5239163;28;20048;-74
2023/05/23 09:08:01;;;;;;;15.45;6.50;;;;;;;17.15;100.00;102276.63;5239031;28;20024;-74
2023/05/23 09:10:31;;;;;;;26.83;7.10;;;;;;;17.06;100.00;102277.69;5233514;28;20362;-74
2023/05/23 09:13:03;;;;;;;22.92;6.55;;;;;;;16.97;100.00;102273.34;5233187;28;20029;-75
2023/05/23 09:15:33;;;;;;;16.15;6.68;;;;;;;16.80;100.00;102278.78;5238520;28;20089;-74
2023/05/23 09:18:04;;;;;;;20.27;6.72;;;;;;;16.39;100.00;102279.81;5239173;28;20056;-75
2023/05/23 09:20:39;;;;;;;23.88;6.85;;;;;;;16.19;100.00;102285.56;5228402;28;20025;-74
2023/05/23 09:23:12;;;;;;;;;;;;;;;16.15;100.00;102284.19;5244750;28;20031;-74
2023/05/23 09:26:03;;;;;;;19.42;6.80;;;;;;;15.98;100.00;102282.50;5233012;28;19915;-74
2023/05/23 09:28:34;;;;;;;23.27;6.53;;;;;;;15.95;100.00;102277.41;5226071;28;20486;-74
2023/05/23 09:31:07;;;;;;;22.48;6.53;;;;;;;15.88;100.00;102285.34;5229374;28;20486;-74
2023/05/23 09:33:39;;;;;;;22.10;6.72;;;;;;;15.77;100.00;102286.53;5238066;28;20535;-74
2023/05/23 09:36:10;;;;;;;16.60;6.40;;;;;;;15.81;100.00;102287.00;5238335;28;20021;-74
2023/05/23 09:38:42;;;;;;;18.85;5.85;;;;;;;15.90;100.00;102288.72;5238633;28;20033;-74
2023/05/23 09:41:13;;;;;;;25.92;7.25;;;;;;;15.98;100.00;102290.63;5240764;28;20028;-74
2023/05/23 09:44:04;;;;;;;19.00;7.15;;;;;;;16.05;100.00;102292.47;5232864;28;20025;-74
2023/05/23 09:46:37;;;;;;;14.55;6.47;;;;;;;16.30;100.00;102276.25;5234414;28;20021;-75
2023/05/23 09:49:26;;;;;;;24.20;6.82;;;;;;;16.42;100.00;102284.91;5238475;28;20103;-74
2023/05/23 09:51:58;;;;;;;14.80;5.72;;;;;;;16.52;100.00;102283.72;5238652;28;20035;-74
2023/05/23 09:54:29;;;;;;;15.82;5.60;;;;;;;16.90;100.00;102291.28;5235289;28;20106;-74
2023/05/23 09:57:01;;;;;;;17.33;6.38;;;;;;;17.17;100.00;102290.91;5232106;28;20036;-74
2023/05/23 09:59:35;;;;;;;17.83;6.20;;;;;;;17.29;100.00;102280.50;5234625;28;20025;-75
2023/05/23 10:02:10;;;;;;;18.38;5.78;;;;;;;17.39;100.00;102286.56;5238804;28;20037;-74
2023/05/23 10:04:42;;;;;;;17.27;5.28;;;;;;;17.49;100.00;102283.63;5238692;28;20025;-75
2023/05/23 10:07:14;;;;;;;17.98;6.63;;;;;;;17.52;100.00;102294.09;5232432;28;20557;-74
2023/05/23 10:09:54;;;;;;;11.48;5.30;;;;;;;16.89;100.00;102285.03;5232521;28;20035;-74
2023/05/23 10:12:43;;;;;;;15.63;5.18;;;;;;;16.52;100.00;102286.41;5235640;28;20025;-74
2023/05/23 10:15:16;;;;;;;12.75;6.70;;;;;;;16.32;100.00;102279.66;5238317;28;20031;-74
2023/05/23 10:18:08;;;;;;;8.73;4.75;;;;;;;16.30;100.00;102297.91;5238340;28;20032;-74
2023/05/23 10:20:42;;;;;;;11.10;5.35;;;;;;;16.55;100.00;102286.06;5228085;28;20086;-74
2023/05/23 10:23:12;;;;;;;20.25;5.75;;;;;;;16.69;100.00;102287.22;5238668;28;20020;-74
2023/05/23 10:25:43;;;;;;;15.55;5.57;;;;;;;16.88;100.00;102290.63;5242484;28;20096;-74
2023/05/23 10:28:14;;;;;;;13.25;5.90;;;;;;;17.16;100.00;102291.88;5230280;28;20154;-75
2023/05/23 10:30:45;;;;;;;11.85;5.15;;;;;;;17.56;100.00;102284.59;5232616;28;20293;-74
2023/05/23 10:33:17;;;;;;;13.25;6.13;;;;;;;17.80;100.00;102289.94;5244141;28;20024;-74
2023/05/23 10:36:11;;;;;;;15.02;6.32;;;;;;;17.88;100.00;102283.63;5242683;28;20023;-74
2023/05/23 10:39:03;;;;;;;10.48;5.35;;;;;;;17.66;100.00;102289.81;5243100;28;20116;-74
2023/05/23 10:41:52;;;;;;;8.25;5.15;;;;;;;17.57;100.00;102287.16;5230038;28;20497;-74
2023/05/23 10:44:28;;;;;;;13.63;5.20;;;;;;;17.93;100.00;102283.91;5238572;28;20033;-74
2023/05/23 10:47:01;;;;;;;10.20;4.90;;;;;;;18.58;100.00;102279.84;5243140;28;20109;-74
2023/05/23 10:49:53;;;;;;;11.43;4.78;;;;;;;19.60;100.00;102289.06;5237051;28;20253;-74
2023/05/23 10:52:25;;;;;;;10.77;4.85;;;;;;;20.11;100.00;102283.56;5244198;28;20561;-75
2023/05/23 10:54:57;;;;;;;10.27;4.00;;;;;;;20.06;100.00;102280.56;5236569;28;20596;-74
2023/05/23 10:57:27;;;;;;;12.65;4.78;;;;;;;19.75;100.00;102286.31;5243266;28;20127;-74
2023/05/23 10:59:58;;;;;;;11.25;3.97;;;;;;;19.67;100.00;102294.59;5242216;28;20012;-75
2023/05/23 11:02:29;;;;;;;8.77;3.42;;;;;;;19.42;100.00;102292.16;5251986;28;20580;-74
2023/05/23 11:05:20;;;;;;;10.88;3.80;;;;;;;19.30;100.00;102287.41;5240934;28;20053;-74
2023/05/23 11:08:12;;;;;;;9.15;3.75;;;;;;;19.55;100.00;102285.22;5236595;28;20017;-74
2023/05/23 11:10:59;;;;;;;9.63;3.42;;;;;;;19.98;100.00;102278.00;5237318;28;20028;-74
2023/05/23 11:14:07;;;;;;;11.30;3.63;;;;;;;20.53;100.00;102270.09;5225887;28;20035;-75
2023/05/23 11:16:40;;;;;;;14.50;2.97;;;;;;;20.44;100.00;102281.13;5233537;28;20029;-74
2023/05/23 11:19:29;;;;;;;10.05;3.42;;;;;;;20.02;100.00;102286.59;5238501;28;20027;-75
2023/05/23 11:22:01;;;;;;;13.93;3.50;;;;;;;19.81;100.00;102293.72;5240323;28;20462;-74
2023/05/23 11:24:51;;;;;;;8.85;3.83;;;;;;;20.19;100.00;102279.88;5243448;28;20108;-74
2023/05/23 11:27:37;;;;;;;18.17;3.75;;;;;;;20.56;100.00;102276.00;5237991;28;20019;-74
2023/05/23 11:30:08;;;;;;;16.35;3.83;;;;;;;20.48;100.00;102291.66;5236057;28;20103;-74
2023/05/23 11:32:38;;;;;;;11.32;3.72;;;;;;;20.65;100.00;102279.44;5236852;28;20170;-74
2023/05/23 11:35:10;;;;;;;14.18;4.18;;;;;;;21.18;100.00;102286.06;5235196;28;20100;-74